createdAt,value
2019-02-10T00:00:56.178Z,100012.20
2019-02-10T00:03:24.659Z,100012.91
2019-02-10T00:05:53.656Z,100004.33
2019-02-10T00:08:22.142Z,99999.17
2019-02-10T00:10:51.152Z,99998.84
2019-02-10T00:13:28.782Z,100000.89
2019-02-10T00:15:59.137Z,99998.80
2019-02-10T00:18:28.088Z,99996.92
2019-02-10T00:20:57.196Z,99998.54
2019-02-10T00:23:26.215Z,99997.05
2019-02-10T00:25:55.481Z,99995.56
2019-02-10T00:28:23.813Z,99997.22
2019-02-10T00:30:52.876Z,99993.45
2019-02-10T00:33:22.191Z,99994.05
2019-02-10T00:35:51.205Z,99992.14
2019-02-10T00:38:20.202Z,99980.45
2019-02-10T00:40:49.153Z,99983.30
2019-02-10T00:43:18.166Z,99973.41
2019-02-10T00:45:47.128Z,99970.44
2019-02-10T00:48:15.653Z,99967.11
2019-02-10T00:50:44.587Z,99973.17
2019-02-10T00:53:14.051Z,99963.73
2019-02-10T00:55:43.099Z,99962.34
2019-02-10T00:58:12.110Z,99953.17
2019-02-10T01:00:41.199Z,99959.38
2019-02-10T01:03:10.146Z,99943.23
2019-02-10T01:05:38.892Z,99949.07
2019-02-10T01:08:07.981Z,99946.16
2019-02-10T01:10:36.910Z,99944.78
2019-02-10T01:13:05.892Z,99939.01
2019-02-10T01:15:34.406Z,99940.47
2019-02-10T01:18:02.829Z,99941.33
2019-02-10T01:20:31.241Z,99935.23
2019-02-10T01:23:00.200Z,99938.41
2019-02-10T01:25:28.610Z,99936.78
2019-02-10T01:27:57.648Z,99934.38
2019-02-10T01:30:26.032Z,99934.17
2019-02-10T01:32:55.030Z,99935.81
2019-02-10T01:35:23.533Z,99921.56
2019-02-10T01:37:52.477Z,99917.47
2019-02-10T01:40:20.910Z,99919.27
2019-02-10T01:42:49.435Z,99913.45
2019-02-10T01:45:17.833Z,99904.06
2019-02-10T01:47:46.792Z,99907.20
2019-02-10T01:50:15.243Z,99888.27
2019-02-10T01:52:43.675Z,99887.39
2019-02-10T01:55:13.341Z,99879.14
2019-02-10T01:57:41.868Z,99871.56
2019-02-10T02:00:12.900Z,99868.20
2019-02-10T02:02:41.739Z,99868.56
2019-02-10T02:05:10.571Z,99859.75
2019-02-10T02:07:39.115Z,99861.95
2019-02-10T02:10:12.670Z,99858.80
2019-02-10T02:12:41.999Z,99849.63
2019-02-10T02:15:15.319Z,99839.53
2019-02-10T02:17:43.730Z,99826.52
2019-02-10T02:20:13.201Z,99817.00
2019-02-10T02:22:41.576Z,99811.59
2019-02-10T02:25:12.232Z,99804.90
2019-02-10T02:27:41.159Z,99804.86
2019-02-10T02:30:11.758Z,99800.97
2019-02-10T02:32:40.154Z,99801.92
2019-02-10T02:35:08.571Z,99788.28
2019-02-10T02:37:36.973Z,99789.05
2019-02-10T02:40:10.422Z,99782.66
2019-02-10T02:42:39.259Z,99774.78
2019-02-10T02:45:12.204Z,99775.19
2019-02-10T02:47:41.259Z,99770.88
2019-02-10T02:50:12.611Z,99770.78
2019-02-10T02:52:41.053Z,99756.64
2019-02-10T02:55:10.176Z,99752.30
2019-02-10T02:57:38.548Z,99751.91
2019-02-10T03:00:09.123Z,99753.25
2019-02-10T03:02:37.486Z,99759.28
2019-02-10T03:05:10.120Z,99753.69
2019-02-10T03:07:38.462Z,99749.70
2019-02-10T03:10:08.209Z,99745.97
2019-02-10T03:12:36.605Z,99744.48
2019-02-10T03:15:06.908Z,99744.02
2019-02-10T03:17:35.253Z,99737.05
2019-02-10T03:20:05.080Z,99734.53
2019-02-10T03:22:33.497Z,99726.92
2019-02-10T03:25:02.071Z,99724.02
2019-02-10T03:27:30.490Z,99720.56
2019-02-10T03:29:58.893Z,99713.77
2019-02-10T03:32:27.418Z,99708.03
2019-02-10T03:34:55.830Z,99702.13
2019-02-10T03:37:27.297Z,99699.99
2019-02-10T03:39:54.415Z,99697.25
2019-02-10T03:42:22.946Z,99697.00
2019-02-10T03:44:51.330Z,99693.73
2019-02-10T03:47:21.964Z,99694.26
2019-02-10T03:49:50.006Z,99682.33
2019-02-10T03:52:18.433Z,99679.20
2019-02-10T03:54:46.858Z,99664.41
2019-02-10T03:57:15.345Z,99666.50
2019-02-10T03:59:43.754Z,99654.70
2019-02-10T04:02:12.182Z,99647.95
2019-02-10T04:04:40.666Z,99640.80
2019-02-10T04:07:09.094Z,99641.03
2019-02-10T04:09:37.474Z,99635.54
2019-02-10T04:12:05.896Z,99633.03
2019-02-10T04:14:34.348Z,99628.03
2019-02-10T04:17:02.758Z,99624.03
2019-02-10T04:19:31.336Z,99617.12
2019-02-10T04:21:59.778Z,99613.73
2019-02-10T04:24:28.159Z,99607.22
2019-02-10T04:26:56.575Z,99598.81
2019-02-10T04:29:24.913Z,99589.92
2019-02-10T04:31:53.306Z,99591.67
2019-02-10T04:34:21.712Z,99586.05
2019-02-10T04:36:50.129Z,99585.16
2019-02-10T04:39:18.470Z,99561.53
2019-02-10T04:41:46.951Z,99567.21
2019-02-10T04:44:15.348Z,99561.06
2019-02-10T04:46:43.772Z,99551.16
2019-02-10T04:49:12.201Z,99548.66
2019-02-10T04:51:40.693Z,99541.91
2019-02-10T04:54:09.067Z,99539.77
2019-02-10T04:56:37.482Z,99539.24
2019-02-10T04:59:05.941Z,99523.61
2019-02-10T05:01:34.694Z,99510.73
2019-02-10T05:04:03.083Z,99504.47
2019-02-10T05:06:31.445Z,99512.59
2019-02-10T05:08:59.893Z,99506.47
2019-02-10T05:11:28.373Z,99507.95
2019-02-10T05:13:56.882Z,99507.12
2019-02-10T05:16:25.272Z,99501.98
2019-02-10T05:18:53.769Z,99493.47
2019-02-10T05:21:22.210Z,99484.16
2019-02-10T05:23:50.681Z,99486.30
2019-02-10T05:26:19.264Z,99480.89
2019-02-10T05:28:47.682Z,99468.61
2019-02-10T05:31:16.110Z,99467.47
2019-02-10T05:33:44.665Z,99455.67
2019-02-10T05:36:13.088Z,99445.28
2019-02-10T05:38:41.521Z,99438.91
2019-02-10T05:41:09.927Z,99433.25
2019-02-10T05:43:38.352Z,99420.45
2019-02-10T05:46:06.889Z,99417.20
2019-02-10T05:48:35.330Z,99414.55
2019-02-10T05:51:04.336Z,99403.92
2019-02-10T05:53:32.757Z,99397.44
2019-02-10T05:56:01.149Z,99388.45
2019-02-10T05:58:29.558Z,99384.94
2019-02-10T06:01:17.400Z,99380.17
2019-02-10T06:03:45.792Z,99371.91
2019-02-10T06:06:14.226Z,99357.66
2019-02-10T06:08:42.808Z,99346.66
2019-02-10T06:11:11.145Z,99347.17
2019-02-10T06:13:39.584Z,99333.01
2019-02-10T06:16:08.090Z,99329.25
2019-02-10T06:18:36.635Z,99323.96
2019-02-10T06:21:05.154Z,99318.83
2019-02-10T06:23:33.584Z,99309.55
2019-02-10T06:26:02.178Z,99304.06
2019-02-10T06:28:30.615Z,99293.77
2019-02-10T06:30:59.089Z,99292.40
2019-02-10T06:33:27.519Z,99279.77
2019-02-10T06:35:56.131Z,99269.41
2019-02-10T06:38:24.618Z,99264.77
2019-02-10T06:40:52.992Z,99265.02
2019-02-10T06:43:21.578Z,99253.53
2019-02-10T06:45:50.022Z,99250.91
2019-02-10T06:48:18.408Z,99237.80
2019-02-10T06:50:46.747Z,99228.05
2019-02-10T06:53:15.119Z,99219.17
2019-02-10T06:55:43.499Z,99219.05
2019-02-10T06:58:11.840Z,99211.39
2019-02-10T07:00:44.517Z,99199.53
2019-02-10T07:03:43.253Z,99190.66
2019-02-10T07:06:13.339Z,99173.89
2019-02-10T07:08:41.775Z,99164.25
2019-02-10T07:11:10.165Z,99160.02
2019-02-10T07:13:41.082Z,99151.98
2019-02-10T07:16:38.374Z,99147.23
2019-02-10T07:19:43.183Z,99134.09
2019-02-10T07:22:34.701Z,99125.75
2019-02-10T07:25:17.845Z,99119.86
2019-02-10T07:28:06.975Z,99107.00
2019-02-10T07:30:50.728Z,99100.75
2019-02-10T07:33:24.854Z,99095.35
2019-02-10T07:36:17.595Z,99074.75
2019-02-10T07:38:52.138Z,99063.23
2019-02-10T07:41:21.531Z,99054.76
2019-02-10T07:43:59.343Z,99039.89
2019-02-10T07:46:32.600Z,99035.50
2019-02-10T07:49:04.227Z,99014.98
2019-02-10T07:51:41.433Z,99008.50
2019-02-10T07:54:21.983Z,98991.25
2019-02-10T07:57:11.794Z,98979.77
2019-02-10T07:59:43.677Z,98975.02
2019-02-10T08:02:29.739Z,98962.65
2019-02-10T08:05:04.141Z,98950.79
2019-02-10T08:07:47.535Z,98932.78
2019-02-10T08:10:25.145Z,98925.29
2019-02-10T08:13:15.181Z,98922.79
2019-02-10T08:15:49.797Z,98919.92
2019-02-10T08:18:34.242Z,98914.31
2019-02-10T08:21:27.017Z,98902.05
2019-02-10T08:24:10.320Z,98894.80
2019-02-10T08:27:09.364Z,98888.17
2019-02-10T08:29:46.675Z,98873.56
2019-02-10T08:32:18.319Z,98870.05
2019-02-10T08:34:52.666Z,98867.02
2019-02-10T08:37:50.437Z,98863.02
2019-02-10T08:40:43.763Z,98848.88
2019-02-10T08:43:33.379Z,98841.98
2019-02-10T08:46:27.704Z,98839.34
2019-02-10T08:49:32.917Z,98815.30
2019-02-10T08:52:23.251Z,98811.95
2019-02-10T08:54:51.716Z,98800.91
2019-02-10T08:57:20.033Z,98787.34
2019-02-10T08:59:48.537Z,98780.16
2019-02-10T09:02:16.988Z,98770.15
2019-02-10T09:04:45.381Z,98761.86
2019-02-10T09:07:15.375Z,98758.90
2019-02-10T09:09:43.841Z,98750.39
2019-02-10T09:12:12.218Z,98744.59
2019-02-10T09:14:40.642Z,98739.43
2019-02-10T09:17:09.023Z,98734.53
2019-02-10T09:19:37.381Z,98732.23
2019-02-10T09:22:05.732Z,98721.17
2019-02-10T09:24:34.471Z,98709.72
2019-02-10T09:27:02.987Z,98698.28
2019-02-10T09:29:31.311Z,98693.86
2019-02-10T09:31:59.687Z,98679.77
2019-02-10T09:34:28.080Z,98675.42
2019-02-10T09:36:56.721Z,98664.53
2019-02-10T09:39:25.129Z,98654.24
2019-02-10T09:41:53.503Z,98642.59
2019-02-10T09:44:21.869Z,98637.69
2019-02-10T09:46:50.229Z,98625.80
2019-02-10T09:49:18.582Z,98616.66
2019-02-10T09:51:46.953Z,98617.03
2019-02-10T09:54:15.282Z,98596.20
2019-02-10T09:56:43.662Z,98595.66
2019-02-10T09:59:12.093Z,98582.13
2019-02-10T10:01:40.454Z,98585.53
2019-02-10T10:04:09.375Z,98566.45
2019-02-10T10:06:38.310Z,98574.26
2019-02-10T10:09:06.947Z,98567.06
2019-02-10T10:11:35.296Z,98558.30
2019-02-10T10:14:03.652Z,98558.71
2019-02-10T10:16:32.604Z,98549.58
2019-02-10T10:19:01.537Z,98544.33
2019-02-10T10:21:30.458Z,98545.22
2019-02-10T10:24:01.014Z,98528.63
2019-02-10T10:26:30.037Z,98541.11
2019-02-10T10:28:58.975Z,98533.41
2019-02-10T10:31:27.909Z,98517.28
2019-02-10T10:33:56.300Z,98520.11
2019-02-10T10:36:25.214Z,98514.80
2019-02-10T10:38:54.146Z,98510.06
2019-02-10T10:41:23.133Z,98499.59
2019-02-10T10:43:52.072Z,98497.36
2019-02-10T10:46:20.968Z,98491.75
2019-02-10T10:48:49.999Z,98485.94
2019-02-10T10:51:18.923Z,98481.89
2019-02-10T10:53:47.885Z,98478.26
2019-02-10T10:56:16.783Z,98468.31
2019-02-10T10:58:45.782Z,98461.63
2019-02-10T11:01:14.725Z,98465.61
2019-02-10T11:03:43.655Z,98461.55
2019-02-10T11:06:12.663Z,98459.32
2019-02-10T11:08:41.848Z,98457.22
2019-02-10T11:11:10.772Z,98450.08
2019-02-10T11:13:39.731Z,98440.99
2019-02-10T11:16:08.697Z,98434.73
2019-02-10T11:18:38.045Z,98433.53
2019-02-10T11:21:07.000Z,98433.16
2019-02-10T11:23:35.904Z,98423.17
2019-02-10T11:26:04.818Z,98414.09
2019-02-10T11:28:33.790Z,98410.03
2019-02-10T11:31:03.001Z,98398.14
2019-02-10T11:33:31.958Z,98398.39
2019-02-10T11:36:00.893Z,98384.58
2019-02-10T11:38:29.799Z,98363.94
2019-02-10T11:40:58.760Z,98371.13
2019-02-10T11:43:27.771Z,98383.40
2019-02-10T11:45:56.683Z,98376.44
2019-02-10T11:48:25.702Z,98360.66
2019-02-10T11:50:54.697Z,98360.19
2019-02-10T11:53:23.997Z,98344.82
2019-02-10T11:55:52.970Z,98351.48
2019-02-10T11:58:21.975Z,98343.07
2019-02-10T12:00:50.908Z,98355.04
2019-02-10T12:03:19.825Z,98344.34
2019-02-10T12:05:48.746Z,98339.02
2019-02-10T12:08:17.687Z,98343.25
2019-02-10T12:10:46.650Z,98335.33
2019-02-10T12:13:15.579Z,98332.36
2019-02-10T12:15:44.522Z,98332.66
2019-02-10T12:18:13.456Z,98325.11
2019-02-10T12:20:42.393Z,98314.77
2019-02-10T12:23:11.350Z,98315.72
2019-02-10T12:25:40.341Z,98316.98
2019-02-10T12:28:09.242Z,98295.20
2019-02-10T12:30:38.168Z,98302.28
2019-02-10T12:33:07.149Z,98295.62
2019-02-10T12:35:38.415Z,98289.80
2019-02-10T12:38:07.362Z,98291.84
2019-02-10T12:40:36.286Z,98285.56
2019-02-10T12:43:05.249Z,98280.84
2019-02-10T12:45:34.573Z,98279.58
2019-02-10T12:48:03.520Z,98277.14
2019-02-10T12:50:32.460Z,98276.48
2019-02-10T12:53:01.420Z,98277.87
2019-02-10T12:55:30.398Z,98271.44
2019-02-10T12:57:59.449Z,98272.58
2019-02-10T13:00:28.394Z,98270.47
2019-02-10T13:02:57.307Z,98269.02
2019-02-10T13:05:26.338Z,98263.62
2019-02-10T13:07:55.265Z,98259.55
2019-02-10T13:10:24.235Z,98249.13
2019-02-10T13:12:53.239Z,98251.42
2019-02-10T13:15:22.453Z,98248.52
2019-02-10T13:17:51.425Z,98241.28
2019-02-10T13:20:20.332Z,98232.37
2019-02-10T13:22:49.248Z,98225.42
2019-02-10T13:25:18.340Z,98224.55
2019-02-10T13:27:47.277Z,98223.20
2019-02-10T13:30:17.341Z,98216.16
2019-02-10T13:32:46.255Z,98213.54
2019-02-10T13:35:15.360Z,98205.81
2019-02-10T13:37:44.310Z,98205.09
2019-02-10T13:40:16.925Z,98206.47
2019-02-10T13:42:46.338Z,98201.33
2019-02-10T13:45:15.279Z,98195.47
2019-02-10T13:47:44.289Z,98202.13
2019-02-10T13:50:17.459Z,98196.83
2019-02-10T13:52:46.396Z,98177.70
2019-02-10T13:55:16.162Z,98196.53
2019-02-10T13:57:45.215Z,98194.70
2019-02-10T14:00:24.752Z,98192.90
2019-02-10T14:02:54.041Z,98190.00
2019-02-10T14:05:22.986Z,98190.55
2019-02-10T14:07:51.919Z,98184.62
2019-02-10T14:10:25.625Z,98181.80
2019-02-10T14:12:51.543Z,98192.65
2019-02-10T14:15:20.765Z,98177.47
2019-02-10T14:17:49.685Z,98188.95
2019-02-10T14:20:19.486Z,98182.27
2019-02-10T14:22:48.411Z,98180.70
2019-02-10T14:25:17.356Z,98184.09
2019-02-10T14:27:46.280Z,98181.20
2019-02-10T14:30:22.802Z,98188.09
2019-02-10T14:32:51.834Z,98186.11
2019-02-10T14:35:20.767Z,98196.24
2019-02-10T14:37:49.688Z,98196.66
2019-02-10T14:40:18.624Z,98192.97
2019-02-10T14:42:47.545Z,98193.27
2019-02-10T14:45:16.796Z,98196.73
2019-02-10T14:47:45.753Z,98199.66
2019-02-10T14:50:17.459Z,98197.99
2019-02-10T14:52:46.413Z,98204.50
2019-02-10T14:55:15.333Z,98202.94
2019-02-10T14:57:44.256Z,98205.34
2019-02-10T15:00:16.583Z,98208.34
2019-02-10T15:02:45.728Z,98205.21
2019-02-10T15:05:14.659Z,98201.93
2019-02-10T15:07:43.561Z,98213.16
2019-02-10T15:10:17.701Z,98210.95
2019-02-10T15:12:46.052Z,98215.43
2019-02-10T15:15:15.034Z,98225.86
2019-02-10T15:17:43.959Z,98212.13
2019-02-10T15:20:13.559Z,98211.36
2019-02-10T15:22:42.491Z,98211.66
2019-02-10T15:25:12.697Z,98216.57
2019-02-10T15:27:41.615Z,98214.69
2019-02-10T15:30:14.686Z,98218.64
2019-02-10T15:32:43.599Z,98213.67
2019-02-10T15:35:12.519Z,98213.09
2019-02-10T15:37:41.476Z,98216.29
2019-02-10T15:40:11.548Z,98220.27
2019-02-10T15:42:40.482Z,98215.96
2019-02-10T15:45:15.873Z,98214.70
2019-02-10T15:47:44.794Z,98211.41
2019-02-10T15:50:14.359Z,98211.89
2019-02-10T15:52:43.347Z,98216.13
2019-02-10T15:55:13.188Z,98216.63
2019-02-10T15:57:42.289Z,98226.33
2019-02-10T16:00:23.029Z,98223.52
2019-02-10T16:02:51.900Z,98227.78
2019-02-10T16:05:20.857Z,98225.49
2019-02-10T16:07:49.793Z,98236.71
2019-02-10T16:10:18.819Z,98225.13
2019-02-10T16:12:47.787Z,98229.87
2019-02-10T16:15:16.849Z,98232.97
2019-02-10T16:17:45.829Z,98231.84
2019-02-10T16:20:15.305Z,98229.84
2019-02-10T16:22:44.256Z,98229.27
2019-02-10T16:25:13.214Z,98233.63
2019-02-10T16:27:42.147Z,98230.73
2019-02-10T16:30:13.523Z,98239.44
2019-02-10T16:32:49.581Z,98226.01
2019-02-10T16:35:13.183Z,98235.97
2019-02-10T16:37:42.178Z,98242.16
2019-02-10T16:40:14.043Z,98235.30
2019-02-10T16:42:42.985Z,98238.19
2019-02-10T16:45:12.875Z,98251.91
2019-02-10T16:47:41.806Z,98241.48
2019-02-10T16:50:13.583Z,98245.55
2019-02-10T16:52:42.519Z,98251.73
2019-02-10T16:55:16.878Z,98248.27
2019-02-10T16:57:45.544Z,98258.59
2019-02-10T17:00:15.765Z,98259.84
2019-02-10T17:02:44.695Z,98258.97
2019-02-10T17:05:13.734Z,98261.69
2019-02-10T17:07:42.668Z,98259.38
2019-02-10T17:10:18.714Z,98256.30
2019-02-10T17:12:47.613Z,98258.34
2019-02-10T17:15:16.560Z,98259.09
2019-02-10T17:17:45.495Z,98263.85
2019-02-10T17:20:15.681Z,98269.36
2019-02-10T17:22:44.619Z,98271.66
2019-02-10T17:25:19.604Z,98271.75
2019-02-10T17:27:47.960Z,98277.44
2019-02-10T17:30:16.901Z,98285.05
2019-02-10T17:32:45.806Z,98279.74
2019-02-10T17:35:15.240Z,98283.12
2019-02-10T17:37:44.520Z,98296.64
2019-02-10T17:40:45.393Z,98282.17
2019-02-10T17:43:14.314Z,98291.80
2019-02-10T17:45:43.280Z,98294.89
2019-02-10T17:48:12.183Z,98295.67
2019-02-10T17:50:41.134Z,98303.20
2019-02-10T17:53:10.091Z,98308.98
2019-02-10T17:55:39.104Z,98305.22
2019-02-10T17:58:08.016Z,98310.52
2019-02-10T18:00:38.613Z,98309.17
2019-02-10T18:03:13.064Z,98318.16
2019-02-10T18:05:42.082Z,98319.62
2019-02-10T18:08:10.401Z,98317.66
2019-02-10T18:10:39.354Z,98328.38
2019-02-10T18:13:08.263Z,98326.66
2019-02-10T18:15:55.317Z,98332.72
2019-02-10T18:18:28.503Z,98334.36
2019-02-10T18:20:59.108Z,98325.40
2019-02-10T18:23:29.643Z,98332.91
2019-02-10T18:26:00.274Z,98346.44
2019-02-10T18:28:30.953Z,98350.49
2019-02-10T18:31:01.550Z,98351.44
2019-02-10T18:33:35.051Z,98353.55
2019-02-10T18:36:17.686Z,98353.95
2019-02-10T18:39:03.264Z,98359.35
2019-02-10T18:41:39.524Z,98335.97
2019-02-10T18:44:18.746Z,98363.19
2019-02-10T18:47:00.876Z,98360.97
2019-02-10T18:49:47.562Z,98364.23
2019-02-10T18:52:30.045Z,98366.05
2019-02-10T18:55:09.482Z,98366.71
2019-02-10T18:57:56.262Z,98371.91
2019-02-10T19:00:26.840Z,98367.34
2019-02-10T19:03:00.329Z,98380.39
2019-02-10T19:05:46.001Z,98378.53
2019-02-10T19:08:32.162Z,98380.06
2019-02-10T19:11:02.747Z,98375.24
2019-02-10T19:13:32.900Z,98379.78
2019-02-10T19:16:03.477Z,98383.81
2019-02-10T19:18:42.230Z,98391.61
2019-02-10T19:21:12.271Z,98389.11
2019-02-10T19:24:01.199Z,98398.15
2019-02-10T19:26:43.569Z,98395.83
2019-02-10T19:29:13.585Z,98407.55
2019-02-10T19:31:43.596Z,98424.67
2019-02-10T19:34:25.439Z,98421.38
2019-02-10T19:36:55.438Z,98422.43
2019-02-10T19:39:28.167Z,98426.83
2019-02-10T19:42:12.916Z,98450.36
2019-02-10T19:44:51.625Z,98458.83
2019-02-10T19:47:37.945Z,98473.41
2019-02-10T19:50:08.500Z,98482.88
2019-02-10T19:52:39.219Z,98484.84
2019-02-10T19:55:22.079Z,98483.52
2019-02-10T19:57:58.125Z,98493.80
2019-02-10T20:00:30.941Z,98507.45
2019-02-10T20:03:17.161Z,98501.63
2019-02-10T20:05:47.158Z,98521.08
2019-02-10T20:08:23.435Z,98525.26
2019-02-10T20:11:09.809Z,98522.20
2019-02-10T20:13:42.775Z,98533.36
2019-02-10T20:16:18.573Z,98534.30
2019-02-10T20:18:51.455Z,98545.66
2019-02-10T20:21:39.523Z,98551.28
2019-02-10T20:24:09.593Z,98566.97
2019-02-10T20:26:55.618Z,98576.50
2019-02-10T20:29:34.800Z,98579.14
2019-02-10T20:32:10.534Z,98585.91
2019-02-10T20:34:40.553Z,98589.34
2019-02-10T20:37:28.792Z,98598.02
2019-02-10T20:40:04.885Z,98605.81
2019-02-10T20:42:37.895Z,98607.02
2019-02-10T20:45:08.418Z,98608.66
2019-02-10T20:47:47.362Z,98616.16
2019-02-10T20:50:33.342Z,98616.41
2019-02-10T20:53:09.256Z,98635.67
2019-02-10T20:55:45.225Z,98636.06
2019-02-10T20:58:30.302Z,98632.83
2019-02-10T21:01:02.924Z,98647.04
2019-02-10T21:03:44.748Z,98657.43
2019-02-10T21:06:14.743Z,98666.37
2019-02-10T21:08:44.751Z,98682.13
2019-02-10T21:11:14.746Z,98688.61
2019-02-10T21:13:47.461Z,98688.61
2019-02-10T21:16:35.585Z,98687.86
2019-02-10T21:19:11.415Z,98697.70
2019-02-10T21:21:57.624Z,98715.52
2019-02-10T21:24:27.627Z,98705.91
2019-02-10T21:27:17.141Z,98730.08
2019-02-10T21:29:53.204Z,98737.16
2019-02-10T21:32:29.077Z,98748.13
2019-02-10T21:35:01.814Z,98749.09
2019-02-10T21:37:37.263Z,98754.44
2019-02-10T21:40:18.377Z,98764.65
2019-02-10T21:42:51.240Z,98782.61
2019-02-10T21:45:21.255Z,98784.70
2019-02-10T21:47:53.716Z,98792.81
2019-02-10T21:50:22.078Z,98792.81
2019-02-10T21:52:50.456Z,98803.55
2019-02-10T21:55:19.030Z,98815.38
2019-02-10T21:57:47.372Z,98800.31
2019-02-10T22:00:15.731Z,98819.05
2019-02-10T22:02:44.091Z,98819.05
2019-02-10T22:05:12.882Z,98830.27
2019-02-10T22:07:41.228Z,98831.38
2019-02-10T22:10:11.788Z,98835.36
2019-02-10T22:12:40.177Z,98853.52
2019-02-10T22:15:10.100Z,98859.98
2019-02-10T22:17:38.441Z,98865.45
2019-02-10T22:20:11.737Z,98860.27
2019-02-10T22:22:40.366Z,98878.45
2019-02-10T22:25:10.747Z,98896.55
2019-02-10T22:27:39.173Z,98907.05
2019-02-10T22:30:15.313Z,98903.45
2019-02-10T22:32:43.668Z,98903.45
2019-02-10T22:35:12.013Z,98910.32
2019-02-10T22:37:40.379Z,98926.77
2019-02-10T22:40:11.263Z,98928.67
2019-02-10T22:42:45.537Z,98938.88
2019-02-10T22:45:12.464Z,98938.88
2019-02-10T22:47:40.805Z,98948.22
2019-02-10T22:50:13.850Z,98950.13
2019-02-10T22:52:43.426Z,98963.13
2019-02-10T22:55:11.786Z,98964.25
2019-02-10T22:57:41.218Z,98980.88
2019-02-10T23:00:17.736Z,98988.73
2019-02-10T23:02:46.097Z,98996.34
2019-02-10T23:05:14.454Z,99004.81
2019-02-10T23:07:42.858Z,99014.09
2019-02-10T23:10:11.208Z,99025.56
2019-02-10T23:12:39.579Z,99036.67
2019-02-10T23:15:07.992Z,99039.46
2019-02-10T23:17:36.595Z,99036.37
2019-02-10T23:20:05.921Z,99066.34
2019-02-10T23:22:34.300Z,99064.98
2019-02-10T23:25:02.644Z,99064.98
2019-02-10T23:27:30.992Z,99080.48
2019-02-10T23:29:59.363Z,99090.84
2019-02-10T23:32:27.740Z,99092.50
2019-02-10T23:34:56.094Z,99092.50
2019-02-10T23:37:24.538Z,99103.65
2019-02-10T23:39:52.916Z,99103.70
2019-02-10T23:42:21.281Z,99124.41
2019-02-10T23:44:49.675Z,99120.41
2019-02-10T23:47:18.025Z,99132.42
2019-02-10T23:49:46.375Z,99134.40
2019-02-10T23:52:14.757Z,99143.41
2019-02-10T23:54:43.137Z,99152.98
2019-02-10T23:57:11.523Z,99166.38
2019-02-10T23:59:39.852Z,99175.11
